createdAt,value
2018-03-29T00:00:09.804Z,2.64
2018-03-29T00:02:35.685Z,2.65
2018-03-29T00:05:01.545Z,2.66
2018-03-29T00:07:27.465Z,2.69
2018-03-29T00:09:53.357Z,2.70
2018-03-29T00:12:19.204Z,2.70
2018-03-29T00:14:45.044Z,2.72
2018-03-29T00:17:10.924Z,2.72
2018-03-29T00:19:36.848Z,2.78
2018-03-29T00:22:02.693Z,2.73
2018-03-29T00:24:28.594Z,2.74
2018-03-29T00:26:54.445Z,2.75
2018-03-29T00:29:20.284Z,2.76
2018-03-29T00:31:46.266Z,2.76
2018-03-29T00:34:12.142Z,2.76
2018-03-29T00:36:37.984Z,2.78
2018-03-29T00:39:03.905Z,2.77
2018-03-29T00:41:29.748Z,2.79
2018-03-29T00:43:55.679Z,2.81
2018-03-29T00:46:21.593Z,2.81
2018-03-29T00:48:47.448Z,2.86
2018-03-29T00:51:13.304Z,2.88
2018-03-29T00:53:44.298Z,2.86
2018-03-29T00:56:10.245Z,2.88
2018-03-29T00:58:36.089Z,2.88
2018-03-29T01:01:02.001Z,2.87
2018-03-29T01:03:27.848Z,2.87
2018-03-29T01:05:53.708Z,2.89
2018-03-29T01:08:19.696Z,2.92
2018-03-29T01:10:45.554Z,2.91
2018-03-29T01:13:11.401Z,2.92
2018-03-29T01:15:37.304Z,2.94
2018-03-29T01:18:03.614Z,2.96
2018-03-29T01:20:30.200Z,2.98
2018-03-29T01:22:56.133Z,2.96
2018-03-29T01:25:21.976Z,3.01
2018-03-29T01:27:47.833Z,3.04
2018-03-29T01:30:13.739Z,3.00
2018-03-29T01:32:39.686Z,3.06
2018-03-29T01:35:05.579Z,3.11
2018-03-29T01:37:31.464Z,3.21
2018-03-29T01:39:57.372Z,3.22
2018-03-29T01:42:23.241Z,3.21
2018-03-29T01:44:49.216Z,3.14
2018-03-29T01:47:15.065Z,3.14
2018-03-29T01:49:40.924Z,3.21
2018-03-29T01:52:06.812Z,3.27
2018-03-29T01:54:32.660Z,3.26
2018-03-29T01:56:58.592Z,3.26
2018-03-29T01:59:24.857Z,3.39
2018-03-29T02:01:50.721Z,3.37
2018-03-29T02:04:16.560Z,3.31
2018-03-29T02:06:42.456Z,3.34
2018-03-29T02:09:08.955Z,3.32
2018-03-29T02:11:34.821Z,3.41
2018-03-29T02:14:01.073Z,3.38
2018-03-29T02:16:26.982Z,3.42
2018-03-29T02:18:52.837Z,3.45
2018-03-29T02:21:18.849Z,3.50
2018-03-29T02:23:44.705Z,3.50
2018-03-29T02:26:10.562Z,3.54
2018-03-29T02:28:36.458Z,3.56
2018-03-29T02:31:02.322Z,3.58
2018-03-29T02:33:28.269Z,3.70
2018-03-29T02:35:54.171Z,3.69
2018-03-29T02:38:20.030Z,3.66
2018-03-29T02:40:45.877Z,3.83
2018-03-29T02:43:11.772Z,3.76
2018-03-29T02:45:37.705Z,3.75
2018-03-29T02:48:03.554Z,3.85
2018-03-29T02:50:29.461Z,3.89
2018-03-29T02:52:55.318Z,4.00
2018-03-29T02:55:21.164Z,4.06
2018-03-29T02:57:47.152Z,4.14
2018-03-29T03:00:13.016Z,4.17
2018-03-29T03:02:38.881Z,4.20
2018-03-29T03:05:04.781Z,4.27
2018-03-29T03:07:30.641Z,4.26
2018-03-29T03:09:56.577Z,4.36
2018-03-29T03:12:22.459Z,4.47
2018-03-29T03:14:48.324Z,4.59
2018-03-29T03:17:14.160Z,4.69
2018-03-29T03:19:40.057Z,4.83
2018-03-29T03:22:06.009Z,4.90
2018-03-29T03:24:31.855Z,4.95
2018-03-29T03:26:57.753Z,4.99
2018-03-29T03:29:23.600Z,5.07
2018-03-29T03:31:49.445Z,5.17
2018-03-29T03:34:15.432Z,5.20
2018-03-29T03:36:41.322Z,5.24
2018-03-29T03:39:07.175Z,5.32
2018-03-29T03:41:33.077Z,5.35
2018-03-29T03:43:58.937Z,5.33
2018-03-29T03:46:24.864Z,5.38
2018-03-29T03:48:50.767Z,5.37
2018-03-29T03:51:16.626Z,5.35
2018-03-29T03:53:42.477Z,5.38
2018-03-29T03:56:08.423Z,5.34
2018-03-29T03:58:34.401Z,5.31
2018-03-29T04:01:00.250Z,5.27
2018-03-29T04:03:26.145Z,5.24
2018-03-29T04:05:52.000Z,5.22
2018-03-29T04:08:17.851Z,5.23
2018-03-29T04:10:43.914Z,5.16
2018-03-29T04:13:09.772Z,5.19
2018-03-29T04:15:35.632Z,5.17
2018-03-29T04:18:01.557Z,5.12
2018-03-29T04:20:27.418Z,5.12
2018-03-29T04:22:53.353Z,5.06
2018-03-29T04:25:19.254Z,5.06
2018-03-29T04:27:45.176Z,5.02
2018-03-29T04:30:11.124Z,5.02
2018-03-29T04:32:37.049Z,4.99
2018-03-29T04:35:03.058Z,5.00
2018-03-29T04:37:28.916Z,4.97
2018-03-29T04:39:54.855Z,4.96
2018-03-29T04:42:20.698Z,4.93
2018-03-29T04:44:46.554Z,4.88
2018-03-29T04:47:12.541Z,4.84
2018-03-29T04:49:38.384Z,4.83
2018-03-29T04:52:04.297Z,4.81
2018-03-29T04:54:30.200Z,4.81
2018-03-29T04:56:56.061Z,4.80
2018-03-29T04:59:22.000Z,4.77
2018-03-29T05:01:47.910Z,4.76
2018-03-29T05:04:13.841Z,4.71
2018-03-29T05:06:39.684Z,4.66
2018-03-29T05:09:05.569Z,4.64
2018-03-29T05:11:31.497Z,4.63
2018-03-29T05:13:57.345Z,4.60
2018-03-29T05:16:23.302Z,4.61
2018-03-29T05:18:49.144Z,4.57
2018-03-29T05:21:15.057Z,4.58
2018-03-29T05:23:41.040Z,4.54
2018-03-29T05:26:06.997Z,4.52
2018-03-29T05:28:32.963Z,4.52
2018-03-29T05:30:58.865Z,4.48
2018-03-29T05:33:24.730Z,4.49
2018-03-29T05:35:50.671Z,4.48
2018-03-29T05:38:16.561Z,4.44
2018-03-29T05:40:42.474Z,4.46
2018-03-29T05:43:08.360Z,4.48
2018-03-29T05:45:34.273Z,4.46
2018-03-29T05:48:00.219Z,4.48
2018-03-29T05:50:26.610Z,4.48
2018-03-29T05:52:52.638Z,4.44
2018-03-29T05:55:18.561Z,4.48
2018-03-29T05:57:44.404Z,4.48
2018-03-29T06:00:10.408Z,4.49
2018-03-29T06:02:36.373Z,4.48
2018-03-29T06:05:02.314Z,4.51
2018-03-29T06:07:28.208Z,4.55
2018-03-29T06:09:54.060Z,4.56
2018-03-29T06:12:19.988Z,4.56
2018-03-29T06:14:45.997Z,4.59
2018-03-29T06:17:18.829Z,4.62
2018-03-29T06:19:44.698Z,4.59
2018-03-29T06:22:10.656Z,4.64
2018-03-29T06:24:36.593Z,4.69
2018-03-29T06:27:02.983Z,4.74
2018-03-29T06:29:28.996Z,4.68
2018-03-29T06:31:54.854Z,4.76
2018-03-29T06:34:20.692Z,4.80
2018-03-29T06:36:46.581Z,4.85
2018-03-29T06:39:12.420Z,4.86
2018-03-29T06:41:38.289Z,4.85
2018-03-29T06:44:04.200Z,4.80
2018-03-29T06:46:30.040Z,4.85
2018-03-29T06:48:55.966Z,4.83
2018-03-29T06:51:21.875Z,4.84
2018-03-29T06:53:47.727Z,4.87
2018-03-29T06:56:14.135Z,4.88
2018-03-29T06:58:40.300Z,4.88
2018-03-29T07:01:06.553Z,4.89
2018-03-29T07:03:32.592Z,4.87
2018-03-29T07:05:58.610Z,4.92
2018-03-29T07:08:24.598Z,4.96
2018-03-29T07:10:50.480Z,5.03
2018-03-29T07:13:16.373Z,5.05
2018-03-29T07:15:42.232Z,5.09
2018-03-29T07:18:08.077Z,5.07
2018-03-29T07:20:33.969Z,5.07
2018-03-29T07:22:59.835Z,5.16
2018-03-29T07:25:25.805Z,5.14
2018-03-29T07:27:51.756Z,5.18
2018-03-29T07:30:17.617Z,5.22
2018-03-29T07:32:43.471Z,5.20
2018-03-29T07:35:09.656Z,5.26
2018-03-29T07:37:35.882Z,5.33
2018-03-29T07:40:01.770Z,5.37
2018-03-29T07:42:27.680Z,5.46
2018-03-29T07:44:53.560Z,5.45
2018-03-29T07:47:19.432Z,5.54
2018-03-29T07:49:45.321Z,5.50
2018-03-29T07:52:11.177Z,5.58
2018-03-29T07:54:37.121Z,5.58
2018-03-29T07:57:03.021Z,5.56
2018-03-29T07:59:28.889Z,5.68
2018-03-29T08:01:54.773Z,5.77
2018-03-29T08:04:20.749Z,5.72
2018-03-29T08:06:46.597Z,5.78
2018-03-29T08:09:12.458Z,5.82
2018-03-29T08:11:38.350Z,5.76
2018-03-29T08:14:04.213Z,5.85
2018-03-29T08:16:30.075Z,5.77
2018-03-29T08:18:55.977Z,5.80
2018-03-29T08:21:21.928Z,5.80
2018-03-29T08:23:47.780Z,5.81
2018-03-29T08:26:13.725Z,5.85
2018-03-29T08:28:39.556Z,5.85
2018-03-29T08:31:05.421Z,5.97
2018-03-29T08:33:31.310Z,6.00
2018-03-29T08:35:57.158Z,6.07
2018-03-29T08:38:23.012Z,6.16
2018-03-29T08:40:48.916Z,6.14
2018-03-29T08:43:14.768Z,6.13
2018-03-29T08:45:40.605Z,6.18
2018-03-29T08:48:06.520Z,6.18
2018-03-29T08:50:32.369Z,6.10
2018-03-29T08:52:58.268Z,6.04
2018-03-29T08:55:24.181Z,6.09
2018-03-29T08:57:50.062Z,6.13
2018-03-29T09:00:15.916Z,6.14
2018-03-29T09:02:41.814Z,6.11
2018-03-29T09:05:07.669Z,6.08
2018-03-29T09:07:33.577Z,6.20
2018-03-29T09:09:59.485Z,6.24
2018-03-29T09:12:25.398Z,6.46
2018-03-29T09:14:51.253Z,6.61
2018-03-29T09:17:17.159Z,6.71
2018-03-29T09:19:43.035Z,6.81
2018-03-29T09:22:08.888Z,6.91
2018-03-29T09:24:34.793Z,6.89
2018-03-29T09:27:00.692Z,6.80
2018-03-29T09:29:26.556Z,6.83
2018-03-29T09:31:52.461Z,6.97
2018-03-29T09:34:18.325Z,7.00
2018-03-29T09:36:44.201Z,7.07
2018-03-29T09:39:10.109Z,7.20
2018-03-29T09:41:35.986Z,7.33
2018-03-29T09:44:01.865Z,7.33
2018-03-29T09:46:27.769Z,7.29
2018-03-29T09:48:53.633Z,7.21
2018-03-29T09:51:19.593Z,7.41
2018-03-29T09:53:45.496Z,7.55
2018-03-29T09:56:11.357Z,7.34
2018-03-29T09:58:37.214Z,7.35
2018-03-29T10:01:07.090Z,7.45
2018-03-29T10:03:38.824Z,7.46
2018-03-29T10:06:04.713Z,7.59
2018-03-29T10:08:30.633Z,7.78
2018-03-29T10:10:56.508Z,8.71
2018-03-29T10:13:22.404Z,9.07
2018-03-29T10:15:48.297Z,9.16
2018-03-29T10:18:14.166Z,9.11
2018-03-29T10:20:40.041Z,8.91
2018-03-29T10:23:05.954Z,8.66
2018-03-29T10:25:31.840Z,8.60
2018-03-29T10:27:57.776Z,8.26
2018-03-29T10:30:24.582Z,7.92
2018-03-29T10:32:50.445Z,7.70
2018-03-29T10:35:16.305Z,7.66
2018-03-29T10:37:42.311Z,7.51
2018-03-29T10:40:08.182Z,7.39
2018-03-29T10:42:34.044Z,7.27
2018-03-29T10:44:59.940Z,7.28
2018-03-29T10:47:25.797Z,7.30
2018-03-29T10:49:51.681Z,7.40
2018-03-29T10:52:17.589Z,7.45
2018-03-29T10:54:43.465Z,7.63
2018-03-29T10:57:09.320Z,7.62
2018-03-29T10:59:35.209Z,7.67
2018-03-29T11:02:01.085Z,7.66
2018-03-29T11:04:26.932Z,7.63
2018-03-29T11:06:52.843Z,7.78
2018-03-29T11:09:18.712Z,8.33
2018-03-29T11:11:44.590Z,8.39
2018-03-29T11:14:10.520Z,8.52
2018-03-29T11:16:36.400Z,8.45
2018-03-29T11:19:02.273Z,8.36
2018-03-29T11:21:28.287Z,8.50
2018-03-29T11:23:54.165Z,8.53
2018-03-29T11:26:20.029Z,8.55
2018-03-29T11:28:45.986Z,8.63
2018-03-29T11:31:11.845Z,8.61
2018-03-29T11:33:37.706Z,8.53
2018-03-29T11:36:03.617Z,8.57
2018-03-29T11:38:29.482Z,8.61
2018-03-29T11:40:55.354Z,8.83
2018-03-29T11:43:21.263Z,8.92
2018-03-29T11:45:47.139Z,8.72
2018-03-29T11:48:13.008Z,8.77
2018-03-29T11:50:38.917Z,8.71
2018-03-29T11:53:04.776Z,8.58
2018-03-29T11:55:30.620Z,8.72
2018-03-29T11:57:56.585Z,8.61
2018-03-29T12:00:22.467Z,8.49
2018-03-29T12:02:48.341Z,8.42
2018-03-29T12:05:14.248Z,8.60
2018-03-29T12:07:40.112Z,8.46
2018-03-29T12:10:05.973Z,8.65
2018-03-29T12:12:31.885Z,8.45
2018-03-29T12:14:57.742Z,8.56
2018-03-29T12:17:23.617Z,8.58
2018-03-29T12:19:49.527Z,8.59
2018-03-29T12:22:15.384Z,8.58
2018-03-29T12:24:41.239Z,8.69
2018-03-29T12:27:07.258Z,8.78
2018-03-29T12:29:33.183Z,8.81
2018-03-29T12:31:59.050Z,8.73
2018-03-29T12:34:24.960Z,8.71
2018-03-29T12:36:50.836Z,8.56
2018-03-29T12:39:16.729Z,8.64
2018-03-29T12:41:42.637Z,8.87
2018-03-29T12:44:08.513Z,8.80
2018-03-29T12:46:34.416Z,8.81
2018-03-29T12:49:00.334Z,8.84
2018-03-29T12:51:26.196Z,8.88
2018-03-29T12:53:52.082Z,8.70
2018-03-29T12:56:30.317Z,8.68
2018-03-29T12:58:56.187Z,8.71
2018-03-29T13:01:22.068Z,8.70
2018-03-29T13:03:47.982Z,8.68
2018-03-29T13:06:13.849Z,8.67
2018-03-29T13:08:39.718Z,8.65
2018-03-29T13:11:05.633Z,8.37
2018-03-29T13:13:31.505Z,8.17
2018-03-29T13:15:57.696Z,8.02
2018-03-29T13:18:23.588Z,7.95
2018-03-29T13:20:49.469Z,7.89
2018-03-29T13:23:15.333Z,7.79
2018-03-29T13:25:41.245Z,7.75
2018-03-29T13:28:07.206Z,7.78
2018-03-29T13:30:33.134Z,7.96
2018-03-29T13:32:59.057Z,8.23
2018-03-29T13:35:24.916Z,8.64
2018-03-29T13:37:50.781Z,8.73
2018-03-29T13:40:16.683Z,8.81
2018-03-29T13:42:42.547Z,9.04
2018-03-29T13:45:08.409Z,9.11
2018-03-29T13:47:34.476Z,9.05
2018-03-29T13:50:00.350Z,8.79
2018-03-29T13:52:26.217Z,8.75
2018-03-29T13:54:52.150Z,8.61
2018-03-29T13:57:18.001Z,8.44
2018-03-29T13:59:43.943Z,8.39
2018-03-29T14:02:09.849Z,8.15
2018-03-29T14:04:35.727Z,8.26
2018-03-29T14:07:01.589Z,8.14
2018-03-29T14:09:27.508Z,8.23
2018-03-29T14:11:53.378Z,8.19
2018-03-29T14:14:19.247Z,8.18
2018-03-29T14:16:45.166Z,8.12
2018-03-29T14:19:11.215Z,8.08
2018-03-29T14:21:37.121Z,7.98
2018-03-29T14:24:03.030Z,8.02
2018-03-29T14:26:29.060Z,8.18
2018-03-29T14:28:54.936Z,8.26
2018-03-29T14:31:20.939Z,8.45
2018-03-29T14:33:46.786Z,8.74
2018-03-29T14:36:12.645Z,9.02
2018-03-29T14:38:38.585Z,9.02
2018-03-29T14:43:47.394Z,9.38
2018-03-29T14:46:13.275Z,9.57
2018-03-29T14:48:39.156Z,9.40
2018-03-29T14:51:05.567Z,9.39
2018-03-29T14:53:31.505Z,9.38
2018-03-29T14:55:57.538Z,9.16
2018-03-29T14:58:23.647Z,9.05
2018-03-29T15:00:50.882Z,9.11
2018-03-29T15:03:16.977Z,9.09
2018-03-29T15:05:42.989Z,8.94
2018-03-29T15:08:09.212Z,8.78
2018-03-29T15:10:35.191Z,8.60
2018-03-29T15:13:01.530Z,8.58
2018-03-29T15:15:28.012Z,8.65
2018-03-29T15:17:54.103Z,8.70
2018-03-29T15:20:20.294Z,8.76
2018-03-29T15:22:46.221Z,8.85
2018-03-29T15:25:12.401Z,8.95
2018-03-29T15:27:38.437Z,8.98
2018-03-29T15:30:04.311Z,8.94
2018-03-29T15:32:30.262Z,8.96
2018-03-29T15:34:56.174Z,8.91
2018-03-29T15:37:22.060Z,8.98
2018-03-29T15:39:48.002Z,9.02
2018-03-29T15:42:13.943Z,8.86
2018-03-29T15:44:39.900Z,8.88
2018-03-29T15:47:06.210Z,8.75
2018-03-29T15:49:32.472Z,8.73
2018-03-29T15:51:58.348Z,8.73
2018-03-29T15:54:24.708Z,8.64
2018-03-29T15:56:50.998Z,8.69
2018-03-29T15:59:16.881Z,8.72
2018-03-29T16:01:42.757Z,8.78
2018-03-29T16:04:08.762Z,9.00
2018-03-29T16:06:34.638Z,9.11
2018-03-29T16:09:00.862Z,9.17
2018-03-29T16:11:26.866Z,9.23
2018-03-29T16:13:52.822Z,9.05
2018-03-29T16:16:18.682Z,8.79
2018-03-29T16:18:44.588Z,8.83
2018-03-29T16:21:11.365Z,8.65
2018-03-29T16:23:37.258Z,8.51
2018-03-29T16:26:03.167Z,8.39
2018-03-29T16:28:29.034Z,8.35
2018-03-29T16:30:54.892Z,8.40
2018-03-29T16:33:21.024Z,8.26
2018-03-29T16:35:46.888Z,8.28
2018-03-29T16:38:13.337Z,8.23
2018-03-29T16:40:39.397Z,8.20
2018-03-29T16:43:05.337Z,8.08
2018-03-29T16:45:31.342Z,8.14
2018-03-29T16:47:57.306Z,8.11
2018-03-29T16:50:23.195Z,7.99
2018-03-29T16:52:49.128Z,7.92
2018-03-29T16:55:15.065Z,7.88
2018-03-29T16:57:41.381Z,7.88
2018-03-29T17:00:09.505Z,7.80
2018-03-29T17:02:35.518Z,7.96
2018-03-29T17:05:01.380Z,7.84
2018-03-29T17:07:27.240Z,7.82
2018-03-29T17:09:53.200Z,7.75
2018-03-29T17:12:19.076Z,7.71
2018-03-29T17:14:44.949Z,7.56
2018-03-29T17:17:10.885Z,7.45
2018-03-29T17:19:36.756Z,7.30
2018-03-29T17:22:02.790Z,7.14
2018-03-29T17:24:28.713Z,6.98
2018-03-29T17:26:54.596Z,6.78
2018-03-29T17:29:20.490Z,6.64
2018-03-29T17:31:46.770Z,6.43
2018-03-29T17:34:12.630Z,6.31
2018-03-29T17:36:38.568Z,6.19
2018-03-29T17:39:05.454Z,6.14
2018-03-29T17:41:31.317Z,6.19
2018-03-29T17:43:57.185Z,6.14
2018-03-29T17:46:23.105Z,6.06
2018-03-29T17:48:49.070Z,6.04
2018-03-29T17:51:14.938Z,6.05
2018-03-29T17:53:40.848Z,6.17
2018-03-29T17:56:06.811Z,6.09
2018-03-29T17:58:32.703Z,6.27
2018-03-29T18:00:58.611Z,6.43
2018-03-29T18:03:25.419Z,6.48
2018-03-29T18:05:51.320Z,6.68
2018-03-29T18:08:17.229Z,6.60
2018-03-29T18:10:43.111Z,6.60
2018-03-29T18:13:09.497Z,6.70
2018-03-29T18:15:35.498Z,6.70
2018-03-29T18:18:01.364Z,6.61
2018-03-29T18:20:27.239Z,6.65
2018-03-29T18:22:53.172Z,6.64
2018-03-29T18:25:19.028Z,6.62
2018-03-29T18:27:45.022Z,6.65
2018-03-29T18:30:11.018Z,6.63
2018-03-29T18:32:37.445Z,6.59
2018-03-29T18:35:03.354Z,6.54
2018-03-29T18:37:29.328Z,6.49
2018-03-29T18:39:55.285Z,6.47
2018-03-29T18:42:21.247Z,6.40
2018-03-29T18:44:47.277Z,6.38
2018-03-29T18:47:13.201Z,6.25
2018-03-29T18:49:39.054Z,6.21
2018-03-29T18:52:04.958Z,6.17
2018-03-29T18:54:30.916Z,6.17
2018-03-29T18:56:56.768Z,6.15
2018-03-29T18:59:22.647Z,6.11
2018-03-29T19:01:48.506Z,6.15
2018-03-29T19:04:14.381Z,6.12
2018-03-29T19:06:40.352Z,6.06
2018-03-29T19:09:06.336Z,5.98
2018-03-29T19:11:32.252Z,5.95
2018-03-29T19:13:58.205Z,5.95
2018-03-29T19:16:24.118Z,5.92
2018-03-29T19:18:49.966Z,5.99
2018-03-29T19:21:15.891Z,5.88
2018-03-29T19:23:41.736Z,5.86
2018-03-29T19:26:07.595Z,5.89
2018-03-29T19:28:33.475Z,6.03
2018-03-29T19:30:59.338Z,5.99
2018-03-29T19:33:25.217Z,6.10
2018-03-29T19:35:51.100Z,6.03
2018-03-29T19:38:16.969Z,6.02
2018-03-29T19:40:42.904Z,6.03
2018-03-29T19:43:08.800Z,6.08
2018-03-29T19:45:34.663Z,6.05
2018-03-29T19:48:00.509Z,5.93
2018-03-29T19:50:26.411Z,5.75
2018-03-29T19:52:52.899Z,5.58
2018-03-29T19:55:18.814Z,5.42
2018-03-29T19:57:44.715Z,5.22
2018-03-29T20:00:10.566Z,5.05
2018-03-29T20:02:36.430Z,4.84
2018-03-29T20:05:02.497Z,4.67
2018-03-29T20:07:28.366Z,4.53
2018-03-29T20:09:54.318Z,4.38
2018-03-29T20:12:20.266Z,4.25
2018-03-29T20:14:46.188Z,4.17
2018-03-29T20:17:12.137Z,4.11
2018-03-29T20:19:38.097Z,4.07
2018-03-29T20:22:03.991Z,4.05
2018-03-29T20:24:29.881Z,4.00
2018-03-29T20:26:55.810Z,3.95
2018-03-29T20:29:21.757Z,4.01
2018-03-29T20:31:47.600Z,3.95
2018-03-29T20:34:13.486Z,3.93
2018-03-29T20:36:39.326Z,3.86
2018-03-29T20:39:05.184Z,3.88
2018-03-29T20:41:31.164Z,3.86
2018-03-29T20:43:57.014Z,3.87
2018-03-29T20:46:22.887Z,3.90
2018-03-29T20:48:48.777Z,3.90
2018-03-29T20:51:14.692Z,3.87
2018-03-29T20:53:40.589Z,3.84
2018-03-29T20:56:06.481Z,3.79
2018-03-29T20:58:32.315Z,3.75
2018-03-29T21:00:58.241Z,3.72
2018-03-29T21:03:24.137Z,3.72
2018-03-29T21:05:50.056Z,3.70
2018-03-29T21:08:15.903Z,3.73
2018-03-29T21:10:41.793Z,3.78
2018-03-29T21:13:07.646Z,3.82
2018-03-29T21:15:33.585Z,3.88
2018-03-29T21:17:59.871Z,3.86
2018-03-29T21:20:25.776Z,3.96
2018-03-29T21:22:51.628Z,3.99
2018-03-29T21:25:17.613Z,4.05
2018-03-29T21:27:43.590Z,4.13
2018-03-29T21:30:09.549Z,4.11
2018-03-29T21:32:35.480Z,4.06
2018-03-29T21:35:01.374Z,3.98
2018-03-29T21:37:27.281Z,3.85
2018-03-29T21:39:53.672Z,3.73
2018-03-29T21:42:19.672Z,3.62
2018-03-29T21:44:45.533Z,3.55
2018-03-29T21:47:11.453Z,3.51
2018-03-29T21:49:37.347Z,3.33
2018-03-29T21:52:03.223Z,3.20
2018-03-29T21:54:29.213Z,3.08
2018-03-29T21:56:55.137Z,3.00
2018-03-29T21:59:20.989Z,2.90
2018-03-29T22:01:46.883Z,2.78
2018-03-29T22:04:12.727Z,2.70
2018-03-29T22:06:38.670Z,2.59
2018-03-29T22:09:04.585Z,2.54
2018-03-29T22:11:30.431Z,2.48
2018-03-29T22:13:56.291Z,2.44
2018-03-29T22:16:22.491Z,2.39
2018-03-29T22:18:48.445Z,2.32
2018-03-29T22:21:14.398Z,2.30
2018-03-29T22:23:40.285Z,2.31
2018-03-29T22:26:06.178Z,2.34
2018-03-29T22:28:32.029Z,2.33
2018-03-29T22:30:58.027Z,2.42
2018-03-29T22:33:23.880Z,2.36
2018-03-29T22:35:49.737Z,2.27
2018-03-29T22:38:15.677Z,2.20
2018-03-29T22:40:41.522Z,2.18
2018-03-29T22:43:07.465Z,2.18
2018-03-29T22:45:33.676Z,2.19
2018-03-29T22:47:59.546Z,2.17
2018-03-29T22:50:25.425Z,2.28
2018-03-29T22:52:51.369Z,2.20
2018-03-29T22:55:17.309Z,2.12
2018-03-29T22:57:43.160Z,2.06
2018-03-29T23:00:09.077Z,1.97
2018-03-29T23:02:34.921Z,1.90
2018-03-29T23:05:00.766Z,1.85
2018-03-29T23:07:26.733Z,1.86
2018-03-29T23:09:52.572Z,1.83
2018-03-29T23:12:18.435Z,1.70
2018-03-29T23:14:44.337Z,1.61
2018-03-29T23:17:10.181Z,1.54
2018-03-29T23:19:36.132Z,1.45
2018-03-29T23:22:02.033Z,1.37
2018-03-29T23:24:27.913Z,1.31
2018-03-29T23:26:53.870Z,1.33
2018-03-29T23:29:20.501Z,1.30
2018-03-29T23:31:46.445Z,1.25
2018-03-29T23:34:12.298Z,1.27
2018-03-29T23:36:38.458Z,1.19
2018-03-29T23:39:04.376Z,1.14
2018-03-29T23:41:30.222Z,1.15
2018-03-29T23:43:56.209Z,1.18
2018-03-29T23:46:22.071Z,1.22
2018-03-29T23:48:47.935Z,1.15
2018-03-29T23:51:13.830Z,1.06
2018-03-29T23:53:39.681Z,0.99
2018-03-29T23:56:05.620Z,1.00
2018-03-29T23:58:31.521Z,0.97
